sensor_id;sensor_type;location;lat;lon;timestamp;pressure;altitude;pressure_sealevel;temperature;humidity
67840;BME280;54636;51.684;5.142;2024-02-14T00:02:07;101378.59;;;8.41;100.00
67840;BME280;54636;51.684;5.142;2024-02-14T00:04:33;101383.84;;;8.44;100.00
67840;BME280;54636;51.684;5.142;2024-02-14T00:06:59;101379.50;;;8.38;100.00
67840;BME280;54636;51.684;5.142;2024-02-14T00:09:24;101376.94;;;8.43;100.00
67840;BME280;54636;51.684;5.142;2024-02-14T00:11:50;101380.84;;;8.42;100.00
67840;BME280;54636;51.684;5.142;2024-02-14T00:14:15;101371.38;;;8.38;100.00
67840;BME280;54636;51.684;5.142;2024-02-14T00:16:40;101369.84;;;8.46;100.00
67840;BME280;54636;51.684;5.142;2024-02-14T00:19:06;101373.94;;;8.41;100.00
67840;BME280;54636;51.684;5.142;2024-02-14T00:21:32;101368.63;;;8.47;100.00
67840;BME280;54636;51.684;5.142;2024-02-14T00:23:59;101356.16;;;8.49;100.00
67840;BME280;54636;51.684;5.142;2024-02-14T00:26:24;101368.19;;;8.57;100.00
67840;BME280;54636;51.684;5.142;2024-02-14T00:28:50;101360.22;;;8.63;100.00
67840;BME280;54636;51.684;5.142;2024-02-14T00:31:15;101361.56;;;8.68;100.00
67840;BME280;54636;51.684;5.142;2024-02-14T00:33:41;101359.75;;;8.65;100.00
67840;BME280;54636;51.684;5.142;2024-02-14T00:36:06;101351.19;;;8.66;100.00
67840;BME280;54636;51.684;5.142;2024-02-14T00:38:32;101339.75;;;8.71;100.00
67840;BME280;54636;51.684;5.142;2024-02-14T00:40:57;101345.91;;;8.72;100.00
67840;BME280;54636;51.684;5.142;2024-02-14T00:43:23;101354.03;;;8.63;100.00
67840;BME280;54636;51.684;5.142;2024-02-14T00:45:48;101346.81;;;8.78;100.00
67840;BME280;54636;51.684;5.142;2024-02-14T00:48:13;101356.44;;;8.79;100.00
67840;BME280;54636;51.684;5.142;2024-02-14T00:50:39;101354.19;;;8.77;100.00
67840;BME280;54636;51.684;5.142;2024-02-14T00:53:04;101348.00;;;8.77;100.00
67840;BME280;54636;51.684;5.142;2024-02-14T00:55:29;101350.41;;;8.75;100.00
67840;BME280;54636;51.684;5.142;2024-02-14T00:57:55;101349.34;;;8.81;100.00
67840;BME280;54636;51.684;5.142;2024-02-14T01:00:20;101353.56;;;8.82;100.00
67840;BME280;54636;51.684;5.142;2024-02-14T01:02:46;101358.97;;;8.82;100.00
67840;BME280;54636;51.684;5.142;2024-02-14T01:05:11;101352.66;;;8.85;100.00
67840;BME280;54636;51.684;5.142;2024-02-14T01:07:37;101355.66;;;8.87;100.00
67840;BME280;54636;51.684;5.142;2024-02-14T01:10:02;101347.53;;;8.97;100.00
67840;BME280;54636;51.684;5.142;2024-02-14T01:12:28;101364.38;;;8.91;100.00
67840;BME280;54636;51.684;5.142;2024-02-14T01:14:57;101359.84;;;8.98;100.00
67840;BME280;54636;51.684;5.142;2024-02-14T01:17:22;101357.31;;;8.94;100.00
67840;BME280;54636;51.684;5.142;2024-02-14T01:19:47;101362.44;;;8.92;100.00
67840;BME280;54636;51.684;5.142;2024-02-14T01:22:14;101366.50;;;8.97;100.00
67840;BME280;54636;51.684;5.142;2024-02-14T01:24:42;101357.44;;;9.00;100.00
67840;BME280;54636;51.684;5.142;2024-02-14T01:27:08;101370.41;;;8.96;100.00
67840;BME280;54636;51.684;5.142;2024-02-14T01:29:34;101374.00;;;9.02;100.00
67840;BME280;54636;51.684;5.142;2024-02-14T01:31:59;101376.13;;;8.98;100.00
67840;BME280;54636;51.684;5.142;2024-02-14T01:34:24;101374.78;;;8.93;100.00
67840;BME280;54636;51.684;5.142;2024-02-14T01:36:50;101369.56;;;9.13;100.00
67840;BME280;54636;51.684;5.142;2024-02-14T01:39:15;101375.06;;;9.04;100.00
67840;BME280;54636;51.684;5.142;2024-02-14T01:41:46;101380.13;;;9.11;100.00
67840;BME280;54636;51.684;5.142;2024-02-14T01:44:14;101369.88;;;9.15;100.00
67840;BME280;54636;51.684;5.142;2024-02-14T01:46:39;101373.50;;;9.12;100.00
67840;BME280;54636;51.684;5.142;2024-02-14T01:49:05;101384.78;;;9.11;100.00
67840;BME280;54636;51.684;5.142;2024-02-14T01:51:31;101376.03;;;9.16;100.00
67840;BME280;54636;51.684;5.142;2024-02-14T01:53:57;101384.03;;;9.10;100.00
67840;BME280;54636;51.684;5.142;2024-02-14T01:56:24;101375.44;;;9.12;100.00
67840;BME280;54636;51.684;5.142;2024-02-14T01:58:50;101375.44;;;9.12;100.00
67840;BME280;54636;51.684;5.142;2024-02-14T02:01:16;101374.25;;;9.13;100.00
67840;BME280;54636;51.684;5.142;2024-02-14T02:03:43;101375.50;;;9.03;100.00
67840;BME280;54636;51.684;5.142;2024-02-14T02:06:08;101367.97;;;9.07;100.00
67840;BME280;54636;51.684;5.142;2024-02-14T02:08:34;101369.78;;;9.01;100.00
67840;BME280;54636;51.684;5.142;2024-02-14T02:11:00;101378.81;;;9.07;100.00
67840;BME280;54636;51.684;5.142;2024-02-14T02:13:25;101376.25;;;9.03;100.00
67840;BME280;54636;51.684;5.142;2024-02-14T02:15:53;101381.09;;;8.99;100.00
67840;BME280;54636;51.684;5.142;2024-02-14T02:18:19;101377.75;;;9.04;100.00
67840;BME280;54636;51.684;5.142;2024-02-14T02:20:45;101367.22;;;9.06;100.00
67840;BME280;54636;51.684;5.142;2024-02-14T02:23:11;101379.72;;;9.04;100.00
67840;BME280;54636;51.684;5.142;2024-02-14T02:25:40;101369.56;;;9.13;100.00
67840;BME280;54636;51.684;5.142;2024-02-14T02:28:05;101379.25;;;9.05;100.00
67840;BME280;54636;51.684;5.142;2024-02-14T02:30:31;101363.59;;;9.09;100.00
67840;BME280;54636;51.684;5.142;2024-02-14T02:32:56;101364.97;;;9.05;100.00
67840;BME280;54636;51.684;5.142;2024-02-14T02:35:22;101376.09;;;9.07;100.00
67840;BME280;54636;51.684;5.142;2024-02-14T02:37:49;101385.84;;;9.13;100.00
67840;BME280;54636;51.684;5.142;2024-02-14T02:40:15;101381.81;;;9.09;100.00
67840;BME280;54636;51.684;5.142;2024-02-14T02:42:42;101379.56;;;9.07;100.00
67840;BME280;54636;51.684;5.142;2024-02-14T02:45:07;101376.97;;;9.13;100.00
67840;BME280;54636;51.684;5.142;2024-02-14T02:47:33;101368.28;;;9.00;100.00
67840;BME280;54636;51.684;5.142;2024-02-14T02:49:59;101375.28;;;9.15;100.00
67840;BME280;54636;51.684;5.142;2024-02-14T02:52:28;101374.13;;;9.07;100.00
67840;BME280;54636;51.684;5.142;2024-02-14T02:54:54;101377.00;;;9.04;100.00
67840;BME280;54636;51.684;5.142;2024-02-14T02:57:20;101361.97;;;9.03;100.00
67840;BME280;54636;51.684;5.142;2024-02-14T02:59:45;101377.91;;;9.10;100.00
67840;BME280;54636;51.684;5.142;2024-02-14T03:02:13;101378.50;;;9.05;100.00
67840;BME280;54636;51.684;5.142;2024-02-14T03:04:39;101382.09;;;9.11;100.00
67840;BME280;54636;51.684;5.142;2024-02-14T03:07:05;101372.75;;;9.12;100.00
67840;BME280;54636;51.684;5.142;2024-02-14T03:09:37;101374.22;;;9.22;100.00
67840;BME280;54636;51.684;5.142;2024-02-14T03:12:03;101365.78;;;9.20;100.00
67840;BME280;54636;51.684;5.142;2024-02-14T03:14:30;101378.56;;;9.29;100.00
67840;BME280;54636;51.684;5.142;2024-02-14T03:17:01;101371.47;;;9.31;100.00
67840;BME280;54636;51.684;5.142;2024-02-14T03:19:27;101380.81;;;9.30;100.00
67840;BME280;54636;51.684;5.142;2024-02-14T03:21:54;101375.06;;;9.37;100.00
67840;BME280;54636;51.684;5.142;2024-02-14T03:24:20;101372.66;;;9.39;100.00
67840;BME280;54636;51.684;5.142;2024-02-14T03:26:45;101374.31;;;9.37;100.00
67840;BME280;54636;51.684;5.142;2024-02-14T03:29:12;101383.97;;;9.38;100.00
67840;BME280;54636;51.684;5.142;2024-02-14T03:31:37;101383.34;;;9.43;100.00
67840;BME280;54636;51.684;5.142;2024-02-14T03:34:03;101383.97;;;9.38;100.00
67840;BME280;54636;51.684;5.142;2024-02-14T03:36:28;101391.19;;;9.41;100.00
67840;BME280;54636;51.684;5.142;2024-02-14T03:38:53;101394.34;;;9.39;100.00
67840;BME280;54636;51.684;5.142;2024-02-14T03:41:19;101405.31;;;9.45;100.00
67840;BME280;54636;51.684;5.142;2024-02-14T03:43:44;101383.03;;;9.41;100.00
67840;BME280;54636;51.684;5.142;2024-02-14T03:46:10;101385.44;;;9.48;100.00
67840;BME280;54636;51.684;5.142;2024-02-14T03:48:37;101386.97;;;9.40;100.00
67840;BME280;54636;51.684;5.142;2024-02-14T03:51:03;101389.50;;;9.43;100.00
67840;BME280;54636;51.684;5.142;2024-02-14T03:53:28;101403.78;;;9.53;100.00
67840;BME280;54636;51.684;5.142;2024-02-14T03:55:54;101400.94;;;9.47;100.00
67840;BME280;54636;51.684;5.142;2024-02-14T03:58:19;101392.63;;;9.60;100.00
67840;BME280;54636;51.684;5.142;2024-02-14T04:00:49;101399.53;;;9.61;100.00
67840;BME280;54636;51.684;5.142;2024-02-14T04:03:16;101398.66;;;9.55;100.00
67840;BME280;54636;51.684;5.142;2024-02-14T04:05:41;101402.59;;;9.54;100.00
67840;BME280;54636;51.684;5.142;2024-02-14T04:08:07;101409.81;;;9.57;100.00
67840;BME280;54636;51.684;5.142;2024-02-14T04:10:37;101422.16;;;9.58;100.00
67840;BME280;54636;51.684;5.142;2024-02-14T04:13:04;101425.31;;;9.56;100.00
67840;BME280;54636;51.684;5.142;2024-02-14T04:15:30;101414.63;;;9.53;100.00
67840;BME280;54636;51.684;5.142;2024-02-14T04:17:56;101417.59;;;9.64;100.00
67840;BME280;54636;51.684;5.142;2024-02-14T04:20:21;101415.78;;;9.70;100.00
67840;BME280;54636;51.684;5.142;2024-02-14T04:22:46;101411.28;;;9.67;100.00
67840;BME280;54636;51.684;5.142;2024-02-14T04:25:12;101415.66;;;9.65;100.00
67840;BME280;54636;51.684;5.142;2024-02-14T04:27:37;101418.81;;;9.63;100.00
67840;BME280;54636;51.684;5.142;2024-02-14T04:30:03;101429.34;;;9.70;100.00
67840;BME280;54636;51.684;5.142;2024-02-14T04:32:29;101416.84;;;9.64;100.00
67840;BME280;54636;51.684;5.142;2024-02-14T04:34:54;101425.41;;;9.71;100.00
67840;BME280;54636;51.684;5.142;2024-02-14T04:37:19;101426.50;;;9.65;100.00
67840;BME280;54636;51.684;5.142;2024-02-14T04:39:45;101424.69;;;9.62;100.00
67840;BME280;54636;51.684;5.142;2024-02-14T04:42:11;101423.66;;;9.59;100.00
67840;BME280;54636;51.684;5.142;2024-02-14T04:44:36;101426.22;;;9.63;100.00
67840;BME280;54636;51.684;5.142;2024-02-14T04:47:02;101432.09;;;9.61;100.00
67840;BME280;54636;51.684;5.142;2024-02-14T04:49:27;101430.41;;;9.64;100.00
67840;BME280;54636;51.684;5.142;2024-02-14T04:51:54;101432.38;;;9.63;100.00
67840;BME280;54636;51.684;5.142;2024-02-14T04:54:20;101431.34;;;9.61;100.00
67840;BME280;54636;51.684;5.142;2024-02-14T04:56:45;101437.47;;;9.70;100.00
67840;BME280;54636;51.684;5.142;2024-02-14T04:59:11;101451.66;;;9.65;100.00
67840;BME280;54636;51.684;5.142;2024-02-14T05:01:37;101444.91;;;9.61;100.00
67840;BME280;54636;51.684;5.142;2024-02-14T05:04:03;101441.56;;;9.66;100.00
67840;BME280;54636;51.684;5.142;2024-02-14T05:06:29;101450.63;;;9.63;100.00
67840;BME280;54636;51.684;5.142;2024-02-14T05:08:54;101450.91;;;9.65;100.00
67840;BME280;54636;51.684;5.142;2024-02-14T05:11:20;101444.16;;;9.60;100.00
67840;BME280;54636;51.684;5.142;2024-02-14T05:13:45;101431.81;;;9.50;100.00
67840;BME280;54636;51.684;5.142;2024-02-14T05:16:12;101453.50;;;9.59;100.00
67840;BME280;54636;51.684;5.142;2024-02-14T05:18:38;101451.41;;;9.54;100.00
67840;BME280;54636;51.684;5.142;2024-02-14T05:21:07;101460.88;;;9.58;100.00
67840;BME280;54636;51.684;5.142;2024-02-14T05:23:33;101459.06;;;9.55;100.00
67840;BME280;54636;51.684;5.142;2024-02-14T05:25:59;101456.69;;;9.48;100.00
67840;BME280;54636;51.684;5.142;2024-02-14T05:28:24;101461.34;;;9.48;100.00
67840;BME280;54636;51.684;5.142;2024-02-14T05:30:51;101447.63;;;9.51;100.00
67840;BME280;54636;51.684;5.142;2024-02-14T05:33:16;101451.09;;;9.52;100.00
67840;BME280;54636;51.684;5.142;2024-02-14T05:35:43;101456.22;;;9.50;100.00
67840;BME280;54636;51.684;5.142;2024-02-14T05:38:09;101452.31;;;9.51;100.00
67840;BME280;54636;51.684;5.142;2024-02-14T05:40:34;101454.44;;;9.47;100.00
67840;BME280;54636;51.684;5.142;2024-02-14T05:43:01;101450.97;;;9.46;100.00
67840;BME280;54636;51.684;5.142;2024-02-14T05:45:26;101459.09;;;9.46;100.00
67840;BME280;54636;51.684;5.142;2024-02-14T05:47:53;101459.84;;;9.47;100.00
67840;BME280;54636;51.684;5.142;2024-02-14T05:50:18;101460.75;;;9.53;100.00
67840;BME280;54636;51.684;5.142;2024-02-14T05:52:44;101460.59;;;9.47;100.00
67840;BME280;54636;51.684;5.142;2024-02-14T05:55:09;101458.78;;;9.53;100.00
67840;BME280;54636;51.684;5.142;2024-02-14T05:57:35;101456.50;;;9.61;100.00
67840;BME280;54636;51.684;5.142;2024-02-14T06:00:00;101464.34;;;9.59;100.00
67840;BME280;54636;51.684;5.142;2024-02-14T06:02:26;101474.13;;;9.56;100.00
67840;BME280;54636;51.684;5.142;2024-02-14T06:04:51;101464.34;;;9.59;100.00
67840;BME280;54636;51.684;5.142;2024-02-14T06:07:16;101467.97;;;9.56;100.00
67840;BME280;54636;51.684;5.142;2024-02-14T06:09:42;101470.41;;;9.45;100.00
67840;BME280;54636;51.684;5.142;2024-02-14T06:12:07;101483.78;;;9.57;100.00
67840;BME280;54636;51.684;5.142;2024-02-14T06:14:32;101478.66;;;9.60;100.00
67840;BME280;54636;51.684;5.142;2024-02-14T06:16:59;101480.78;;;9.55;100.00
67840;BME280;54636;51.684;5.142;2024-02-14T06:19:26;101494.91;;;9.60;100.00
67840;BME280;54636;51.684;5.142;2024-02-14T06:21:51;101490.88;;;9.55;100.00
67840;BME280;54636;51.684;5.142;2024-02-14T06:24:17;101499.44;;;9.63;100.00
67840;BME280;54636;51.684;5.142;2024-02-14T06:26:44;101498.22;;;9.64;100.00
67840;BME280;54636;51.684;5.142;2024-02-14T06:29:09;101498.53;;;9.66;100.00
67840;BME280;54636;51.684;5.142;2024-02-14T06:31:34;101504.19;;;9.77;100.00
67840;BME280;54636;51.684;5.142;2024-02-14T06:34:00;101496.69;;;9.72;100.00
67840;BME280;54636;51.684;5.142;2024-02-14T06:36:25;101505.53;;;9.81;100.00
67840;BME280;54636;51.684;5.142;2024-02-14T06:38:51;101514.78;;;9.75;100.00
67840;BME280;54636;51.684;5.142;2024-02-14T06:41:16;101515.78;;;9.77;100.00
67840;BME280;54636;51.684;5.142;2024-02-14T06:43:41;101512.91;;;9.81;100.00
67840;BME280;54636;51.684;5.142;2024-02-14T06:46:07;101517.00;;;9.76;100.00
67840;BME280;54636;51.684;5.142;2024-02-14T06:48:32;101511.72;;;9.82;100.00
67840;BME280;54636;51.684;5.142;2024-02-14T06:50:59;101516.84;;;9.80;100.00
67840;BME280;54636;51.684;5.142;2024-02-14T06:53:24;101503.41;;;9.85;100.00
67840;BME280;54636;51.684;5.142;2024-02-14T06:55:50;101513.81;;;9.87;100.00
67840;BME280;54636;51.684;5.142;2024-02-14T06:58:15;101519.69;;;9.85;100.00
67840;BME280;54636;51.684;5.142;2024-02-14T07:00:40;101527.53;;;9.83;100.00
67840;BME280;54636;51.684;5.142;2024-02-14T07:03:06;101521.19;;;9.86;100.00
67840;BME280;54636;51.684;5.142;2024-02-14T07:05:31;101533.53;;;9.87;100.00
67840;BME280;54636;51.684;5.142;2024-02-14T07:07:57;101522.41;;;9.85;100.00
67840;BME280;54636;51.684;5.142;2024-02-14T07:10:22;101530.53;;;9.85;100.00
67840;BME280;54636;51.684;5.142;2024-02-14T07:12:48;101526.78;;;9.83;100.00
67840;BME280;54636;51.684;5.142;2024-02-14T07:15:13;101533.53;;;9.87;100.00
67840;BME280;54636;51.684;5.142;2024-02-14T07:17:39;101537.31;;;9.90;100.00
67840;BME280;54636;51.684;5.142;2024-02-14T07:20:05;101530.25;;;9.83;100.00
67840;BME280;54636;51.684;5.142;2024-02-14T07:22:31;101522.09;;;9.83;100.00
67840;BME280;54636;51.684;5.142;2024-02-14T07:24:56;101542.16;;;9.86;100.00
67840;BME280;54636;51.684;5.142;2024-02-14T07:27:22;101532.78;;;9.87;100.00
67840;BME280;54636;51.684;5.142;2024-02-14T07:29:49;101542.31;;;9.82;100.00
67840;BME280;54636;51.684;5.142;2024-02-14T07:32:14;101542.59;;;9.84;100.00
67840;BME280;54636;51.684;5.142;2024-02-14T07:34:40;101529.03;;;9.84;100.00
67840;BME280;54636;51.684;5.142;2024-02-14T07:37:06;101537.75;;;9.88;100.00
67840;BME280;54636;51.684;5.142;2024-02-14T07:39:32;101533.09;;;9.89;100.00
67840;BME280;54636;51.684;5.142;2024-02-14T07:42:00;101538.81;;;9.91;100.00
67840;BME280;54636;51.684;5.142;2024-02-14T07:44:25;101539.41;;;9.95;100.00
67840;BME280;54636;51.684;5.142;2024-02-14T07:46:51;101536.19;;;10.06;100.00
67840;BME280;54636;51.684;5.142;2024-02-14T07:49:17;101542.53;;;10.03;100.00
67840;BME280;54636;51.684;5.142;2024-02-14T07:51:43;101527.34;;;9.96;100.00
67840;BME280;54636;51.684;5.142;2024-02-14T07:54:08;101534.25;;;10.06;100.00
67840;BME280;54636;51.684;5.142;2024-02-14T07:56:33;101534.06;;;10.10;100.00
67840;BME280;54636;51.684;5.142;2024-02-14T07:58:59;101542.22;;;10.10;100.00
67840;BME280;54636;51.684;5.142;2024-02-14T08:01:25;101550.03;;;10.17;100.00
67840;BME280;54636;51.684;5.142;2024-02-14T08:03:51;101554.25;;;10.27;100.00
67840;BME280;54636;51.684;5.142;2024-02-14T08:06:17;101552.00;;;10.16;100.00
67840;BME280;54636;51.684;5.142;2024-02-14T08:08:42;101557.72;;;10.18;100.00
67840;BME280;54636;51.684;5.142;2024-02-14T08:11:09;101557.72;;;10.18;100.00
67840;BME280;54636;51.684;5.142;2024-02-14T08:13:34;101561.50;;;10.21;100.00
67840;BME280;54636;51.684;5.142;2024-02-14T08:16:00;101556.81;;;10.21;100.00
67840;BME280;54636;51.684;5.142;2024-02-14T08:18:25;101561.34;;;10.15;100.00
67840;BME280;54636;51.684;5.142;2024-02-14T08:20:52;101566.47;;;10.13;100.00
67840;BME280;54636;51.684;5.142;2024-02-14T08:23:18;101560.47;;;10.09;100.00
67840;BME280;54636;51.684;5.142;2024-02-14T08:25:45;101553.41;;;10.03;100.00
67840;BME280;54636;51.684;5.142;2024-02-14T08:28:11;101563.81;;;10.04;100.00
67840;BME280;54636;51.684;5.142;2024-02-14T08:30:36;101561.09;;;10.04;100.00
67840;BME280;54636;51.684;5.142;2024-02-14T08:33:03;101563.47;;;10.11;100.00
67840;BME280;54636;51.684;5.142;2024-02-14T08:35:28;101565.56;;;10.16;100.00
67840;BME280;54636;51.684;5.142;2024-02-14T08:37:54;101563.91;;;10.19;100.00
67840;BME280;54636;51.684;5.142;2024-02-14T08:40:20;101565.28;;;10.14;100.00
67840;BME280;54636;51.684;5.142;2024-02-14T08:42:45;101566.94;;;10.21;100.00
67840;BME280;54636;51.684;5.142;2024-02-14T08:45:10;101568.56;;;10.28;100.00
67840;BME280;54636;51.684;5.142;2024-02-14T08:47:36;101561.16;;;10.28;100.00
67840;BME280;54636;51.684;5.142;2024-02-14T08:50:03;101564.13;;;10.39;100.00
67840;BME280;54636;51.684;5.142;2024-02-14T08:52:28;101571.53;;;10.39;100.00
67840;BME280;54636;51.684;5.142;2024-02-14T08:54:54;101560.31;;;10.46;100.00
67840;BME280;54636;51.684;5.142;2024-02-14T08:57:19;101566.94;;;10.45;100.00
67840;BME280;54636;51.684;5.142;2024-02-14T08:59:46;101565.41;;;10.53;100.00
67840;BME280;54636;51.684;5.142;2024-02-14T09:02:13;101554.41;;;10.47;100.00
67840;BME280;54636;51.684;5.142;2024-02-14T09:04:39;101569.28;;;10.61;100.00
67840;BME280;54636;51.684;5.142;2024-02-14T09:07:06;101579.69;;;10.63;100.00
67840;BME280;54636;51.684;5.142;2024-02-14T09:09:32;101584.25;;;10.56;100.00
67840;BME280;54636;51.684;5.142;2024-02-14T09:11:58;101583.75;;;10.67;100.00
67840;BME280;54636;51.684;5.142;2024-02-14T09:14:27;101587.22;;;10.68;100.00
67840;BME280;54636;51.684;5.142;2024-02-14T09:16:53;101589.75;;;10.71;100.00
67840;BME280;54636;51.684;5.142;2024-02-14T09:19:18;101594.84;;;10.78;100.00
67840;BME280;54636;51.684;5.142;2024-02-14T09:21:44;101604.31;;;10.83;100.00
67840;BME280;54636;51.684;5.142;2024-02-14T09:24:09;101598.44;;;10.84;100.00
67840;BME280;54636;51.684;5.142;2024-02-14T09:26:35;101590.84;;;10.88;100.00
67840;BME280;54636;51.684;5.142;2024-02-14T09:29:00;101591.31;;;10.87;100.00
67840;BME280;54636;51.684;5.142;2024-02-14T09:31:25;101585.66;;;11.00;100.00
67840;BME280;54636;51.684;5.142;2024-02-14T09:33:51;101593.25;;;11.10;100.00
67840;BME280;54636;51.684;5.142;2024-02-14T09:36:18;101590.47;;;11.19;100.00
67840;BME280;54636;51.684;5.142;2024-02-14T09:38:44;101585.88;;;11.26;100.00
67840;BME280;54636;51.684;5.142;2024-02-14T09:41:36;101592.66;;;11.30;100.00
67840;BME280;54636;51.684;5.142;2024-02-14T09:44:03;101593.59;;;11.42;100.00
67840;BME280;54636;51.684;5.142;2024-02-14T09:46:29;101598.50;;;11.52;100.00
67840;BME280;54636;51.684;5.142;2024-02-14T09:48:56;101597.66;;;11.46;100.00
67840;BME280;54636;51.684;5.142;2024-02-14T09:51:24;101592.31;;;11.52;100.00
67840;BME280;54636;51.684;5.142;2024-02-14T09:53:50;101596.63;;;11.59;100.00
67840;BME280;54636;51.684;5.142;2024-02-14T09:56:16;101607.06;;;11.60;100.00
67840;BME280;54636;51.684;5.142;2024-02-14T09:58:45;101606.13;;;11.63;100.00
67840;BME280;54636;51.684;5.142;2024-02-14T10:01:21;101605.19;;;11.66;100.00
67840;BME280;54636;51.684;5.142;2024-02-14T10:03:53;101608.38;;;11.65;100.00
67840;BME280;54636;51.684;5.142;2024-02-14T10:06:18;101599.63;;;11.61;100.00
67840;BME280;54636;51.684;5.142;2024-02-14T10:08:47;101603.28;;;11.58;100.00
67840;BME280;54636;51.684;5.142;2024-02-14T10:11:18;101605.66;;;11.65;100.00
67840;BME280;54636;51.684;5.142;2024-02-14T10:13:47;101603.50;;;11.69;100.00
67840;BME280;54636;51.684;5.142;2024-02-14T10:16:14;101607.16;;;11.66;100.00
67840;BME280;54636;51.684;5.142;2024-02-14T10:18:39;101603.00;;;11.70;100.00
67840;BME280;54636;51.684;5.142;2024-02-14T10:21:05;101603.69;;;11.80;100.00
67840;BME280;54636;51.684;5.142;2024-02-14T10:23:30;101602.94;;;11.79;100.00
67840;BME280;54636;51.684;5.142;2024-02-14T10:25:57;101621.72;;;11.77;100.00
67840;BME280;54636;51.684;5.142;2024-02-14T10:28:23;101606.88;;;11.64;100.00
67840;BME280;54636;51.684;5.142;2024-02-14T10:30:49;101628.34;;;11.76;100.00
67840;BME280;54636;51.684;5.142;2024-02-14T10:33:15;101629.22;;;11.82;100.00
67840;BME280;54636;51.684;5.142;2024-02-14T10:35:41;101618.78;;;11.81;100.00
67840;BME280;54636;51.684;5.142;2024-02-14T10:38:08;101627.25;;;11.83;100.00
67840;BME280;54636;51.684;5.142;2024-02-14T10:40:35;101625.94;;;11.78;100.00
67840;BME280;54636;51.684;5.142;2024-02-14T10:43:01;101629.31;;;11.88;100.00
67840;BME280;54636;51.684;5.142;2024-02-14T10:45:27;101627.72;;;11.81;100.00
67840;BME280;54636;51.684;5.142;2024-02-14T10:47:53;101632.88;;;11.79;100.00
67840;BME280;54636;51.684;5.142;2024-02-14T10:50:21;101629.97;;;11.83;100.00
67840;BME280;54636;51.684;5.142;2024-02-14T10:52:48;101618.97;;;11.77;100.00
67840;BME280;54636;51.684;5.142;2024-02-14T10:55:15;101623.69;;;11.77;100.00
67840;BME280;54636;51.684;5.142;2024-02-14T10:57:43;101617.88;;;11.84;100.00
67840;BME280;54636;51.684;5.142;2024-02-14T11:00:12;101624.72;;;11.79;100.00
67840;BME280;54636;51.684;5.142;2024-02-14T11:02:41;101625.47;;;11.80;100.00
67840;BME280;54636;51.684;5.142;2024-02-14T11:05:12;101617.38;;;11.85;100.00
67840;BME280;54636;51.684;5.142;2024-02-14T11:07:44;101613.16;;;11.84;100.00
67840;BME280;54636;51.684;5.142;2024-02-14T11:10:13;101618.78;;;11.81;100.00
67840;BME280;54636;51.684;5.142;2024-02-14T11:12:40;101619.84;;;11.83;100.00
67840;BME280;54636;51.684;5.142;2024-02-14T11:15:19;101613.16;;;11.84;100.00
67840;BME280;54636;51.684;5.142;2024-02-14T11:17:45;101616.53;;;11.79;100.00
67840;BME280;54636;51.684;5.142;2024-02-14T11:20:21;101609.59;;;11.78;100.00
67840;BME280;54636;51.684;5.142;2024-02-14T11:22:57;101608.66;;;11.81;100.00
67840;BME280;54636;51.684;5.142;2024-02-14T11:25:29;101607.81;;;11.90;100.00
67840;BME280;54636;51.684;5.142;2024-02-14T11:27:57;101604.91;;;11.94;100.00
67840;BME280;54636;51.684;5.142;2024-02-14T11:30:33;101603.31;;;12.02;100.00
67840;BME280;54636;51.684;5.142;2024-02-14T11:33:19;101613.91;;;12.00;100.00
67840;BME280;54636;51.684;5.142;2024-02-14T11:35:54;101602.84;;;12.03;100.00
67840;BME280;54636;51.684;5.142;2024-02-14T11:38:21;101603.31;;;12.02;100.00
67840;BME280;54636;51.684;5.142;2024-02-14T11:40:47;101604.91;;;12.08;100.00
67840;BME280;54636;51.684;5.142;2024-02-14T11:43:14;101600.00;;;12.12;100.00
67840;BME280;54636;51.684;5.142;2024-02-14T11:45:41;101600.09;;;12.18;100.00
67840;BME280;54636;51.684;5.142;2024-02-14T11:48:11;101598.88;;;12.19;100.00
67840;BME280;54636;51.684;5.142;2024-02-14T11:50:39;101569.31;;;11.97;100.00
67840;BME280;54636;51.684;5.142;2024-02-14T11:53:04;101593.44;;;12.19;100.00
67840;BME280;54636;51.684;5.142;2024-02-14T11:55:34;101597.00;;;12.10;100.00
67840;BME280;54636;51.684;5.142;2024-02-14T11:57:59;101580.13;;;12.06;100.00
67840;BME280;54636;51.684;5.142;2024-02-14T12:00:25;101582.19;;;12.11;100.00
67840;BME280;54636;51.684;5.142;2024-02-14T12:02:51;101586.88;;;12.11;100.00
67840;BME280;54636;51.684;5.142;2024-02-14T12:05:17;101584.91;;;12.11;100.00
67840;BME280;54636;51.684;5.142;2024-02-14T12:07:44;101583.41;;;12.10;100.00
67840;BME280;54636;51.684;5.142;2024-02-14T12:10:09;101592.03;;;12.09;100.00
67840;BME280;54636;51.684;5.142;2024-02-14T12:12:37;101598.63;;;12.02;100.00
67840;BME280;54636;51.684;5.142;2024-02-14T12:15:03;101588.66;;;11.99;100.00
67840;BME280;54636;51.684;5.142;2024-02-14T12:17:29;101587.53;;;11.91;100.00
67840;BME280;54636;51.684;5.142;2024-02-14T12:20:08;101577.59;;;11.88;100.00
67840;BME280;54636;51.684;5.142;2024-02-14T12:22:39;101594.78;;;11.94;100.00
67840;BME280;54636;51.684;5.142;2024-02-14T12:25:06;101590.25;;;11.91;100.00
67840;BME280;54636;51.684;5.142;2024-02-14T12:27:33;101590.06;;;11.95;100.00
67840;BME280;54636;51.684;5.142;2024-02-14T12:30:02;101585.84;;;11.94;100.00
67840;BME280;54636;51.684;5.142;2024-02-14T12:32:28;101579.47;;;11.97;100.00
67840;BME280;54636;51.684;5.142;2024-02-14T12:34:56;101592.03;;;11.94;100.00
67840;BME280;54636;51.684;5.142;2024-02-14T12:37:22;101581.81;;;12.04;100.00
67840;BME280;54636;51.684;5.142;2024-02-14T12:39:48;101578.81;;;12.02;100.00
67840;BME280;54636;51.684;5.142;2024-02-14T12:42:13;101579.66;;;12.08;100.00